Kezdőlap
METAR-TAF:

METAR-TAF

Repülőterek :

Juzsno-Szahalinszk, Oroszország

földrajzi szélesség: 46-57N, földrajzi hosszúság: 142-43E, magasság: 31 m

Jelenlegi meteorológiai megfigyelések

A jelentés 28 perccel ezelõtt készült, 22:00 UTC
Déli szél 10 kt
Hőmérséklet 16°C
Páratartalom 82%
Légköri nyomás 999 hPa
Látótávolság 10 km, vagy több
Szakadozott felhőzet 1300 lábon

METAR: UHSS 172200Z 17005MPS 9999 BKN013 16/13 Q0999 R19/290060 NOSIG RMK MT OBSC QFE748/0997

Idő: 09:28 (22:28 UTC)

Előrejelzés

A jelentés 1 órával és 28 perccel ezelõtt készült, 21:00 UTC
Az előrejelzés 17-én 21 óra UTC és 19-én 03 óra UTC között érvényes
Déli szél 6 kt
Látótávolság 10 km, vagy több
Szakadozott felhőzet 2000 lábon, Cumulonimbus.

TAF: UHSS 172100Z 1721/1903 17003MPS 9999 BKN020CB

Meteorológiai megfigyelések és előrejelzések több, mint 4000 repülőtéren (METAR és TAF jelentéseket).

A térképen piros és sárga pontok jelzik az elérhető meteorológiai állomásokat.

Mozgassa az egeret a pont fölött, hogy megjelenjen az állomás neve.

Azután kattintson az időjárási megfigyelések és előrejelzések megtekintéséhez.

A térkép megváltoztatása: kattintson a fekete keresztel jelölt zöld gombra ráközelítéshez, a vonallal jelölt zöld gombra távolításhoz, vagy a zöld nyilakra a szomszédos térképek eléréséhez.


METAR-TAF: